createdAt,value
2023-03-14T00:01:16.531Z,98831.59
2023-03-14T00:06:11.044Z,98823.44
2023-03-14T00:08:38.094Z,98823.78
2023-03-14T00:11:25.240Z,98823.28
2023-03-14T00:13:52.591Z,98827.94
2023-03-14T00:16:19.728Z,98835.31
2023-03-14T00:18:46.245Z,98833.72
2023-03-14T00:21:13.504Z,98833.72
2023-03-14T00:23:42.084Z,98846.97
2023-03-14T00:26:12.047Z,98832.94
2023-03-14T00:28:39.161Z,98834.81
2023-03-14T00:31:07.533Z,98835.94
2023-03-14T00:33:34.955Z,98813.41
2023-03-14T00:36:05.219Z,98829.72
2023-03-14T00:38:32.951Z,98828.94
2023-03-14T00:40:59.992Z,98816.78
2023-03-14T00:43:26.752Z,98824.94
2023-03-14T00:45:53.901Z,98847.81
2023-03-14T00:48:21.425Z,98842.38
2023-03-14T00:50:48.183Z,98854.03
2023-03-14T00:53:14.885Z,98843.97
2023-03-14T00:55:46.265Z,98859.81
2023-03-14T00:58:14.606Z,98851.97
2023-03-14T01:00:41.468Z,98855.47
2023-03-14T01:03:10.533Z,98851.66
2023-03-14T01:05:37.772Z,98855.47
2023-03-14T01:08:05.261Z,98841.09
2023-03-14T01:10:31.852Z,98832.50
2023-03-14T01:12:58.455Z,98830.56
2023-03-14T01:15:25.364Z,98817.28
2023-03-14T01:17:52.005Z,98820.00
2023-03-14T01:20:20.347Z,98810.25
2023-03-14T01:22:46.891Z,98811.84
2023-03-14T01:25:16.296Z,98825.44
2023-03-14T01:27:43.364Z,98823.41
2023-03-14T01:30:11.455Z,98833.94
2023-03-14T01:32:39.472Z,98838.91
2023-03-14T01:35:06.436Z,98840.00
2023-03-14T01:37:32.960Z,98832.19
2023-03-14T01:39:59.470Z,98831.06
2023-03-14T01:42:26.094Z,98821.31
2023-03-14T01:45:00.792Z,98826.41
2023-03-14T01:47:27.852Z,98836.84
2023-03-14T01:50:00.215Z,98830.59
2023-03-14T01:52:34.320Z,98827.06
2023-03-14T01:55:06.985Z,98818.91
2023-03-14T01:57:38.688Z,98825.81
2023-03-14T02:00:12.670Z,98799.78
2023-03-14T02:02:43.147Z,98818.47
2023-03-14T02:05:10.237Z,98816.06
2023-03-14T02:07:50.674Z,98815.25
2023-03-14T02:10:21.710Z,98812.88
2023-03-14T02:12:49.195Z,98812.09
2023-03-14T02:15:16.443Z,98818.66
2023-03-14T02:17:44.892Z,98806.16
2023-03-14T02:20:18.452Z,98806.81
2023-03-14T02:22:46.940Z,98793.56
2023-03-14T02:25:27.346Z,98796.75
2023-03-14T02:27:54.632Z,98792.13
2023-03-14T02:30:23.965Z,98794.03
2023-03-14T02:32:59.997Z,98787.78
2023-03-14T02:35:30.773Z,98794.34
2023-03-14T02:38:42.092Z,98781.91
2023-03-14T02:41:08.859Z,98782.25
2023-03-14T02:43:35.360Z,98791.97
2023-03-14T02:46:03.093Z,98777.91
2023-03-14T02:48:35.082Z,98776.31
2023-03-14T02:51:02.596Z,98787.19
2023-03-14T02:53:34.668Z,98777.13
2023-03-14T02:56:01.220Z,98772.31
2023-03-14T02:58:28.620Z,98764.97
2023-03-14T03:00:55.392Z,98763.06
2023-03-14T03:03:22.245Z,98761.00
2023-03-14T03:05:51.567Z,98760.66
2023-03-14T03:08:19.857Z,98758.75
2023-03-14T03:10:46.463Z,98761.78
2023-03-14T03:13:13.033Z,98757.16
2023-03-14T03:15:39.529Z,98763.72
2023-03-14T03:18:06.109Z,98772.97
2023-03-14T03:20:32.686Z,98748.88
2023-03-14T03:23:02.111Z,98759.38
2023-03-14T03:25:29.175Z,98761.66
2023-03-14T03:27:55.889Z,98748.41
2023-03-14T03:30:22.476Z,98753.84
2023-03-14T03:32:49.072Z,98748.41
2023-03-14T03:35:16.179Z,98746.00
2023-03-14T03:37:42.759Z,98749.50
2023-03-14T03:40:10.715Z,98751.44
2023-03-14T03:42:37.899Z,98751.44
2023-03-14T03:45:04.966Z,98746.34
2023-03-14T03:47:32.654Z,98757.22
2023-03-14T03:49:59.144Z,98754.50
2023-03-14T03:52:25.710Z,98755.28
2023-03-14T03:54:52.181Z,98761.03
2023-03-14T03:57:18.674Z,98766.47
2023-03-14T03:59:45.137Z,98761.34
2023-03-14T04:02:11.878Z,98764.88
2023-03-14T04:04:39.449Z,98769.50
2023-03-14T04:07:06.848Z,98763.28
2023-03-14T04:09:33.407Z,98764.41
2023-03-14T04:12:00.066Z,98767.13
2023-03-14T04:14:26.609Z,98759.78
2023-03-14T04:16:53.082Z,98762.75
2023-03-14T04:19:19.646Z,98748.41
2023-03-14T04:21:47.998Z,98745.69
2023-03-14T04:24:14.933Z,98746.47
2023-03-14T04:26:41.500Z,98741.38
2023-03-14T04:29:08.134Z,98745.22
2023-03-14T04:31:34.669Z,98740.88
2023-03-14T04:34:01.285Z,98744.44
2023-03-14T04:36:27.826Z,98749.03
2023-03-14T04:38:54.363Z,98742.03
2023-03-14T04:41:20.938Z,98741.72
2023-03-14T04:43:47.481Z,98745.53
2023-03-14T04:46:14.008Z,98745.06
2023-03-14T04:48:41.064Z,98740.09
2023-03-14T04:51:08.033Z,98732.75
2023-03-14T04:53:35.433Z,98737.72
2023-03-14T04:56:02.491Z,98743.94
2023-03-14T04:58:29.088Z,98734.22
2023-03-14T05:00:55.741Z,98739.94
2023-03-14T05:03:22.754Z,98736.13
2023-03-14T05:05:49.350Z,98743.47
2023-03-14T05:08:15.936Z,98745.06
2023-03-14T05:10:42.486Z,98752.88
2023-03-14T05:13:09.239Z,98745.22
2023-03-14T05:15:35.821Z,98756.25
2023-03-14T05:18:02.344Z,98757.84
2023-03-14T05:20:28.823Z,98757.22
2023-03-14T05:22:55.388Z,98758.44
2023-03-14T05:25:21.878Z,98796.97
2023-03-14T05:27:48.465Z,98805.56
2023-03-14T05:30:15.254Z,98817.25
2023-03-14T05:32:41.815Z,98820.44
2023-03-14T05:35:08.763Z,98825.06
2023-03-14T05:37:35.641Z,98834.81
2023-03-14T05:40:02.289Z,98844.59
2023-03-14T05:42:28.831Z,98855.91
2023-03-14T05:44:55.395Z,98854.78
2023-03-14T05:47:21.932Z,98854.47
2023-03-14T05:49:49.516Z,98859.41
2023-03-14T05:52:16.129Z,98873.78
2023-03-14T05:54:42.615Z,98878.44
2023-03-14T05:57:09.121Z,98892.03
2023-03-14T05:59:35.660Z,98902.88
2023-03-14T06:02:02.438Z,98897.00
2023-03-14T06:04:28.998Z,98905.94
2023-03-14T06:06:55.559Z,98904.81
2023-03-14T06:09:23.782Z,98917.25
2023-03-14T06:11:50.703Z,98906.88
2023-03-14T06:14:18.133Z,98910.06
2023-03-14T06:16:44.726Z,98929.09
2023-03-14T06:19:11.714Z,98936.94
2023-03-14T06:21:38.343Z,98936.13
2023-03-14T06:24:05.168Z,98941.56
2023-03-14T06:26:31.686Z,98941.56
2023-03-14T06:28:58.238Z,98960.59
2023-03-14T06:31:24.746Z,98966.03
2023-03-14T06:33:51.249Z,98973.38
2023-03-14T06:36:18.054Z,98986.97
2023-03-14T06:38:44.575Z,98992.41
2023-03-14T06:41:11.230Z,99000.84
2023-03-14T06:43:37.834Z,99014.44
2023-03-14T06:46:04.638Z,99024.19
2023-03-14T06:48:31.265Z,99029.31
2023-03-14T06:50:58.054Z,99038.75
2023-03-14T06:53:24.647Z,99043.06
2023-03-14T06:55:51.219Z,99049.28
2023-03-14T06:58:17.733Z,99054.72
2023-03-14T07:00:44.550Z,99065.59
2023-03-14T07:03:13.599Z,99066.41
2023-03-14T07:05:41.727Z,99069.09
2023-03-14T07:08:09.532Z,99091.66
2023-03-14T07:10:36.605Z,99090.06
2023-03-14T07:13:03.292Z,99117.22
2023-03-14T07:15:29.868Z,99112.59
2023-03-14T07:17:56.402Z,99121.88
2023-03-14T07:20:23.244Z,99126.50
2023-03-14T07:22:53.060Z,99138.47
2023-03-14T07:25:19.582Z,99139.59
2023-03-14T07:27:47.746Z,99147.47
2023-03-14T07:30:14.981Z,99166.94
2023-03-14T07:32:41.543Z,99175.91
2023-03-14T07:35:09.151Z,99185.97
2023-03-14T07:37:35.687Z,99194.91
2023-03-14T07:40:02.213Z,99196.84
2023-03-14T07:42:28.732Z,99206.91
2023-03-14T07:44:55.247Z,99212.34
2023-03-14T07:47:21.808Z,99221.78
2023-03-14T07:49:48.323Z,99235.38
2023-03-14T07:52:14.842Z,99244.34
2023-03-14T07:54:41.489Z,99259.03
2023-03-14T07:57:08.134Z,99271.50
2023-03-14T07:59:34.703Z,99290.53
2023-03-14T08:02:01.214Z,99293.25
2023-03-14T08:04:28.373Z,99309.56
2023-03-14T08:06:55.502Z,99310.34
2023-03-14T08:09:22.068Z,99322.03
2023-03-14T08:11:48.760Z,99337.22
2023-03-14T08:14:15.417Z,99344.56
2023-03-14T08:16:41.978Z,99356.22
2023-03-14T08:19:08.553Z,99392.38
2023-03-14T08:21:35.343Z,99412.22
2023-03-14T08:24:01.880Z,99409.78
2023-03-14T08:26:28.501Z,99415.22
2023-03-14T08:28:55.010Z,99434.25
2023-03-14T08:31:22.141Z,99435.38
2023-03-14T08:33:48.773Z,99436.19
2023-03-14T08:36:15.394Z,99463.34
2023-03-14T08:38:43.535Z,99462.56
2023-03-14T08:41:10.589Z,99480.78
2023-03-14T08:43:37.155Z,99492.47
2023-03-14T08:46:03.978Z,99495.19
2023-03-14T08:48:31.447Z,99511.47
2023-03-14T08:51:05.211Z,99523.94
2023-03-14T08:53:31.720Z,99532.63
2023-03-14T08:55:58.563Z,99546.19
2023-03-14T08:58:25.165Z,99549.72
2023-03-14T09:00:51.910Z,99553.25
2023-03-14T09:03:18.661Z,99571.94
2023-03-14T09:05:45.244Z,99574.56
2023-03-14T09:08:11.773Z,99574.75
2023-03-14T09:10:39.563Z,99594.56
2023-03-14T09:13:06.268Z,99594.56
2023-03-14T09:15:33.389Z,99616.31
2023-03-14T09:18:00.210Z,99604.94
2023-03-14T09:20:26.936Z,99615.81
2023-03-14T09:22:53.528Z,99627.50
2023-03-14T09:25:20.065Z,99649.25
2023-03-14T09:27:46.593Z,99651.66
2023-03-14T09:30:13.448Z,99665.25
2023-03-14T09:32:40.015Z,99669.09
2023-03-14T09:35:06.720Z,99682.69
2023-03-14T09:37:33.347Z,99697.09
2023-03-14T09:40:00.072Z,99705.53
2023-03-14T09:42:28.722Z,99718.31
2023-03-14T09:45:08.584Z,99722.66
2023-03-14T09:47:39.494Z,99748.22
2023-03-14T09:50:15.579Z,99761.03
2023-03-14T09:52:47.161Z,99761.34
2023-03-14T09:55:22.336Z,99769.50
2023-03-14T09:57:52.218Z,99786.59
2023-03-14T10:00:21.665Z,99796.38
2023-03-14T10:02:55.283Z,99805.63
2023-03-14T10:05:25.522Z,99812.69
2023-03-14T10:07:52.284Z,99808.03
2023-03-14T10:10:25.332Z,99824.56
2023-03-14T10:13:10.802Z,99825.88
2023-03-14T10:15:40.175Z,99843.47
2023-03-14T10:18:15.941Z,99845.09
2023-03-14T10:20:48.258Z,99852.47
2023-03-14T10:23:14.715Z,99862.50
2023-03-14T10:25:43.992Z,99881.25
2023-03-14T10:28:25.727Z,99884.78
2023-03-14T10:30:52.644Z,99887.19
2023-03-14T10:33:19.147Z,99897.78
2023-03-14T10:35:46.650Z,99921.13
2023-03-14T10:38:17.203Z,99921.13
2023-03-14T10:40:52.538Z,99935.25
2023-03-14T10:48:33.227Z,99963.03
2023-03-14T10:51:12.074Z,99965.25
2023-03-14T10:53:42.787Z,99978.03
2023-03-14T10:56:13.880Z,99994.34
2023-03-14T10:58:46.488Z,99994.34
2023-03-14T11:01:18.806Z,100006.34
2023-03-14T11:03:57.560Z,100017.22
2023-03-14T11:06:43.780Z,100024.25
2023-03-14T11:09:33.552Z,100041.38
2023-03-14T11:12:21.206Z,100043.03
2023-03-14T11:14:58.748Z,100041.91
2023-03-14T11:17:25.222Z,100054.38
2023-03-14T11:20:00.901Z,100068.50
2023-03-14T11:22:45.515Z,100074.16
2023-03-14T11:25:21.505Z,100094.50
2023-03-14T11:28:00.978Z,100091.50
2023-03-14T11:30:39.548Z,100107.19
2023-03-14T11:33:13.376Z,100115.06
2023-03-14T11:36:15.370Z,100121.84
2023-03-14T11:38:49.248Z,100128.59
2023-03-14T11:41:33.978Z,100143.50
2023-03-14T11:44:05.724Z,100147.06
2023-03-14T11:47:00.574Z,100156.84
2023-03-14T11:49:29.926Z,100171.25
2023-03-14T11:52:17.350Z,100186.47
2023-03-14T11:55:14.015Z,100191.94
2023-03-14T11:57:41.292Z,100184.84
2023-03-14T12:00:19.154Z,100194.66
2023-03-14T12:03:12.382Z,100206.34
2023-03-14T12:05:43.933Z,100201.69
2023-03-14T12:08:10.550Z,100198.97
2023-03-14T12:10:52.571Z,100193.53
2023-03-14T12:13:19.987Z,100208.16
2023-03-14T12:16:00.169Z,100225.28
2023-03-14T12:18:39.718Z,100225.81
2023-03-14T12:21:12.630Z,100233.97
2023-03-14T12:23:41.890Z,100241.03
2023-03-14T12:26:19.523Z,100237.50
2023-03-14T12:29:11.329Z,100247.00
2023-03-14T12:31:42.384Z,100236.09
2023-03-14T12:34:11.863Z,100246.16
2023-03-14T12:36:50.910Z,100269.56
2023-03-14T12:39:23.507Z,100269.25
2023-03-14T12:41:54.650Z,100276.31
2023-03-14T12:44:30.459Z,100279.03
2023-03-14T12:47:01.505Z,100290.44
2023-03-14T12:49:33.377Z,100279.56
2023-03-14T12:52:02.026Z,100290.97
2023-03-14T12:54:33.894Z,100287.94
2023-03-14T12:57:22.984Z,100306.69
2023-03-14T13:00:17.252Z,100319.22
2023-03-14T13:02:45.097Z,100332.50
2023-03-14T13:05:26.532Z,100330.59
2023-03-14T13:07:56.362Z,100342.81
2023-03-14T13:10:42.888Z,100359.97
2023-03-14T13:13:27.895Z,100370.03
2023-03-14T13:16:05.584Z,100382.03
2023-03-14T13:18:41.515Z,100383.94
2023-03-14T13:21:15.757Z,100383.94
2023-03-14T13:23:54.561Z,100394.00
2023-03-14T13:26:34.032Z,100401.91
2023-03-14T13:29:00.838Z,100399.97
2023-03-14T13:31:27.712Z,100407.84
2023-03-14T13:34:08.239Z,100410.56
2023-03-14T13:36:36.779Z,100414.09
2023-03-14T13:39:05.689Z,100438.09
2023-03-14T13:41:32.289Z,100431.84
2023-03-14T13:44:07.815Z,100443.81
2023-03-14T13:46:36.325Z,100435.63
2023-03-14T13:49:05.898Z,100450.59
2023-03-14T13:51:36.409Z,100450.59
2023-03-14T13:54:04.169Z,100466.13
2023-03-14T13:56:33.645Z,100461.78
2023-03-14T13:59:00.154Z,100471.88
2023-03-14T14:01:39.216Z,100472.13
2023-03-14T14:04:16.907Z,100483.03
2023-03-14T14:06:55.544Z,100486.84
2023-03-14T14:09:28.183Z,100493.41
2023-03-14T14:12:14.297Z,100498.84
2023-03-14T14:15:08.227Z,100501.56
2023-03-14T14:17:46.600Z,100503.75
2023-03-14T14:20:32.723Z,100518.47
2023-03-14T14:23:00.972Z,100520.41
2023-03-14T14:25:27.611Z,100539.44
2023-03-14T14:27:54.114Z,100535.06
2023-03-14T14:30:20.569Z,100541.34
2023-03-14T14:32:49.571Z,100551.41
2023-03-14T14:35:42.575Z,100553.31
2023-03-14T14:38:17.914Z,100560.69
2023-03-14T14:40:46.774Z,100566.94
2023-03-14T14:43:18.743Z,100559.88
2023-03-14T14:45:47.811Z,100576.19
2023-03-14T14:48:14.731Z,100581.66
2023-03-14T14:50:58.066Z,100587.91
2023-03-14T14:53:30.869Z,100602.31
2023-03-14T14:56:05.773Z,100612.41
2023-03-14T14:58:40.521Z,100603.41
2023-03-14T15:01:15.540Z,100623.28
2023-03-14T15:03:44.756Z,100619.75
2023-03-14T15:06:16.327Z,100625.19
2023-03-14T15:08:47.348Z,100630.63
2023-03-14T15:11:20.109Z,100638.81
2023-03-14T15:13:46.786Z,100649.69
2023-03-14T15:16:15.012Z,100651.59
2023-03-14T15:18:41.681Z,100661.38
2023-03-14T15:21:08.248Z,100660.56
2023-03-14T15:23:34.822Z,100664.41
2023-03-14T15:26:01.391Z,100668.19
2023-03-14T15:28:30.050Z,100669.84
2023-03-14T15:30:59.012Z,100679.94
2023-03-14T15:33:27.080Z,100676.91
2023-03-14T15:35:54.059Z,100678.81
2023-03-14T15:38:23.833Z,100681.53
2023-03-14T15:40:51.954Z,100680.44
2023-03-14T15:43:19.817Z,100692.66
2023-03-14T15:45:46.627Z,100694.28
2023-03-14T15:48:20.745Z,100702.16
2023-03-14T15:50:47.625Z,100706.78
2023-03-14T15:53:14.565Z,100707.31
2023-03-14T15:55:41.150Z,100717.41
2023-03-14T15:58:18.846Z,100712.78
2023-03-14T16:00:46.543Z,100720.13
2023-03-14T16:03:13.430Z,100722.03
2023-03-14T16:05:40.707Z,100723.41
2023-03-14T16:08:08.017Z,100731.59
2023-03-14T16:10:34.843Z,100729.16
2023-03-14T16:13:01.766Z,100720.16
2023-03-14T16:15:28.254Z,100741.13
2023-03-14T16:17:55.929Z,100740.31
2023-03-14T16:20:23.818Z,100750.38
2023-03-14T16:22:50.573Z,100747.38
2023-03-14T16:25:19.192Z,100755.28
2023-03-14T16:27:45.789Z,100753.34
2023-03-14T16:30:14.154Z,100750.63
2023-03-14T16:32:41.434Z,100760.72
2023-03-14T16:35:08.320Z,100758.25
2023-03-14T16:37:34.878Z,100756.38
2023-03-14T16:43:11.508Z,100779.22
2023-03-14T16:45:36.865Z,100781.94
2023-03-14T16:48:03.444Z,100790.13
2023-03-14T16:50:30.155Z,100789.84
2023-03-14T16:52:56.825Z,100793.38
2023-03-14T16:55:23.464Z,100801.53
2023-03-14T16:57:50.266Z,100799.63
2023-03-14T17:00:17.172Z,100815.97
2023-03-14T17:02:43.738Z,100812.44
2023-03-14T17:05:10.341Z,100815.97
2023-03-14T17:07:36.862Z,100816.78
2023-03-14T17:10:03.541Z,100814.59
2023-03-14T17:12:30.047Z,100837.44
2023-03-14T17:14:57.905Z,100836.63
2023-03-14T17:17:24.479Z,100842.06
2023-03-14T17:19:51.089Z,100845.09
2023-03-14T17:22:29.246Z,100849.13
2023-03-14T17:24:57.281Z,100838.53
2023-03-14T17:27:24.027Z,100854.06
2023-03-14T17:29:50.944Z,100852.44
2023-03-14T17:32:17.848Z,100850.81
2023-03-14T17:34:44.858Z,100863.59
2023-03-14T17:37:11.892Z,100872.06
2023-03-14T17:39:39.466Z,100873.69
2023-03-14T17:42:06.935Z,100882.94
2023-03-14T17:44:33.664Z,100890.56
2023-03-14T17:47:00.444Z,100893.84
2023-03-14T17:49:27.062Z,100900.66
2023-03-14T17:51:53.857Z,100904.47
2023-03-14T17:54:20.538Z,100910.72
2023-03-14T17:56:48.830Z,100920.78
2023-03-14T17:59:16.114Z,100913.72
2023-03-14T18:01:42.764Z,100926.50
2023-03-14T18:04:09.740Z,100916.47
2023-03-14T18:06:36.405Z,100928.41
2023-03-14T18:09:05.754Z,100930.31
2023-03-14T18:11:32.466Z,100936.88
2023-03-14T18:14:01.598Z,100937.97
2023-03-14T18:16:28.619Z,100936.31
2023-03-14T18:18:57.266Z,100945.31
2023-03-14T18:21:24.030Z,100936.63
2023-03-14T18:23:50.727Z,100937.41
2023-03-14T18:26:17.746Z,100947.50
2023-03-14T18:28:44.842Z,100949.13
2023-03-14T18:31:13.563Z,100954.56
2023-03-14T18:33:42.638Z,100955.66
2023-03-14T18:36:10.687Z,100950.22
2023-03-14T18:38:43.187Z,100965.75
2023-03-14T18:41:12.800Z,100964.13
2023-03-14T18:43:40.040Z,100966.00
2023-03-14T18:46:06.623Z,100965.19
2023-03-14T18:48:33.271Z,100966.00
2023-03-14T18:51:01.368Z,100959.22
2023-03-14T18:53:32.170Z,100961.94
2023-03-14T18:56:02.304Z,100978.28
2023-03-14T18:58:29.484Z,100967.66
2023-03-14T19:01:01.578Z,100961.41
2023-03-14T19:03:29.373Z,100957.88
2023-03-14T19:05:57.334Z,100956.22
2023-03-14T19:08:25.188Z,100950.78
2023-03-14T19:10:55.018Z,100956.22
2023-03-14T19:13:25.838Z,100961.66
2023-03-14T19:15:52.375Z,100957.31
2023-03-14T19:18:19.212Z,100962.75
2023-03-14T19:20:57.051Z,100961.09
2023-03-14T19:23:24.803Z,100953.75
2023-03-14T19:25:55.429Z,100962.19
2023-03-14T19:28:22.819Z,100957.06
2023-03-14T19:30:49.410Z,100953.50
2023-03-14T19:33:16.967Z,100954.34
2023-03-14T19:35:44.745Z,100952.97
2023-03-14T19:38:11.996Z,100954.59
2023-03-14T19:40:40.167Z,100948.63
2023-03-14T19:43:07.475Z,100959.50
2023-03-14T19:45:36.660Z,100964.09
2023-03-14T19:48:06.378Z,100955.13
2023-03-14T19:50:34.429Z,100969.84
2023-03-14T19:53:03.468Z,100967.94
2023-03-14T19:55:34.616Z,100975.28
2023-03-14T19:58:01.426Z,100986.16
2023-03-14T20:00:28.022Z,100992.69
2023-03-14T20:02:54.669Z,100993.81
2023-03-14T20:05:23.761Z,100999.25
2023-03-14T20:07:50.885Z,100994.88
2023-03-14T20:10:23.092Z,101000.31
2023-03-14T20:12:50.921Z,101015.00
2023-03-14T20:15:19.590Z,100996.25
2023-03-14T20:17:47.427Z,101001.69
2023-03-14T20:20:15.404Z,101007.94
2023-03-14T20:22:42.415Z,101003.59
2023-03-14T20:25:11.785Z,101005.50
2023-03-14T20:27:39.673Z,101006.31
2023-03-14T20:30:10.903Z,101015.56
2023-03-14T20:32:37.757Z,101025.63
2023-03-14T20:35:04.535Z,101020.47
2023-03-14T20:37:31.049Z,101025.09
2023-03-14T20:39:57.623Z,101021.28
2023-03-14T20:42:26.552Z,101036.78
2023-03-14T20:44:54.459Z,101031.91
2023-03-14T20:47:21.115Z,101038.44
2023-03-14T20:49:47.712Z,101033.81
2023-03-14T20:52:14.490Z,101048.47
2023-03-14T20:54:41.607Z,101050.38
2023-03-14T20:57:08.362Z,101055.81
2023-03-14T20:59:34.896Z,101056.13
2023-03-14T21:02:01.902Z,101046.34
2023-03-14T21:04:28.533Z,101056.38
2023-03-14T21:06:55.249Z,101063.19
2023-03-14T21:09:25.706Z,101060.47
2023-03-14T21:11:52.937Z,101053.13
2023-03-14T21:14:19.656Z,101066.72
2023-03-14T21:16:46.563Z,101071.88
2023-03-14T21:19:13.482Z,101090.91
2023-03-14T21:21:40.016Z,101062.38
2023-03-14T21:24:07.611Z,101102.38
2023-03-14T21:26:34.289Z,101106.16
2023-03-14T21:29:04.315Z,101121.66
2023-03-14T21:31:31.444Z,101123.00
2023-03-14T21:33:59.534Z,101134.16
2023-03-14T21:36:26.089Z,101148.56
2023-03-14T21:38:52.940Z,101148.88
2023-03-14T21:41:19.407Z,101160.81
2023-03-14T21:43:46.010Z,101158.09
2023-03-14T21:46:13.420Z,101154.84
2023-03-14T21:48:40.046Z,101164.91
2023-03-14T21:51:07.241Z,101169.53
2023-03-14T21:53:34.980Z,101159.72
2023-03-14T21:56:01.657Z,101160.81
2023-03-14T21:58:28.320Z,101166.53
2023-03-14T22:01:01.676Z,101167.88
2023-03-14T22:03:29.152Z,101184.75
2023-03-14T22:05:55.654Z,101174.41
2023-03-14T22:08:22.826Z,101170.06
2023-03-14T22:10:52.764Z,101180.09
2023-03-14T22:13:20.690Z,101179.56
2023-03-14T22:15:48.456Z,101178.75
2023-03-14T22:18:16.530Z,101170.84
2023-03-14T22:20:43.865Z,101180.91
2023-03-14T22:23:11.347Z,101173.03
2023-03-14T22:25:46.068Z,101186.63
2023-03-14T22:28:12.627Z,101186.63
2023-03-14T22:30:39.400Z,101185.25
2023-03-14T22:33:06.356Z,101176.56
2023-03-14T22:35:33.408Z,101184.16
2023-03-14T22:37:59.928Z,101174.91
2023-03-14T22:40:26.638Z,101170.56
2023-03-14T22:42:53.491Z,101167.28
2023-03-14T22:45:20.316Z,101171.66
2023-03-14T22:47:46.906Z,101180.88
2023-03-14T22:50:13.688Z,101172.44
2023-03-14T22:52:40.312Z,101169.72
2023-03-14T22:55:07.143Z,101176.00
2023-03-14T22:57:33.833Z,101168.66
2023-03-14T23:00:00.357Z,101169.19
2023-03-14T23:02:26.972Z,101166.47
2023-03-14T23:04:53.484Z,101170.53
2023-03-14T23:07:19.984Z,101167.81
2023-03-14T23:09:46.508Z,101167.00
2023-03-14T23:12:17.535Z,101169.72
2023-03-14T23:14:44.119Z,101169.19
2023-03-14T23:17:10.757Z,101171.63
2023-03-14T23:19:39.571Z,101156.41
2023-03-14T23:22:09.610Z,101157.75
2023-03-14T23:24:36.377Z,101150.69
2023-03-14T23:27:03.425Z,101151.72
2023-03-14T23:29:30.026Z,101156.34
2023-03-14T23:31:56.604Z,101158.25
2023-03-14T23:34:25.268Z,101162.88
2023-03-14T23:36:51.841Z,101164.78
2023-03-14T23:39:18.319Z,101148.47
2023-03-14T23:41:44.902Z,101177.56
2023-03-14T23:44:13.276Z,101167.78
2023-03-14T23:46:40.348Z,101183.22
2023-03-14T23:49:07.059Z,101172.66
2023-03-14T23:51:33.583Z,101173.75
2023-03-14T23:54:00.229Z,101168.31
2023-03-14T23:56:26.728Z,101160.69
2023-03-14T23:58:53.945Z,101160.97
